Time;durP1;ratioP1;P1;durP2;ratioP2;P2;SDS_P1;SDS_P2;PMS_P1;PMS_P2;Temp;Humidity;BMP_temperature;BMP_pressure;BME280_temperature;BME280_humidity;BME280_pressure;Samples;Min_cycle;Max_cycle;Signal;HPM_P1;HPM_P2
2021/10/09 00:00:16;;;;;;;142.43;132.43;;;;;;;;;;5015089;28;20481;-66
2021/10/09 00:02:43;;;;;;;144.67;134.77;;;;;;;;;;5016944;28;20476;-65
2021/10/09 00:05:10;;;;;;;137.37;127.60;;;;;;;;;;5035483;28;20464;-66
2021/10/09 00:07:38;;;;;;;142.07;132.10;;;;;;;;;;5045008;28;20456;-66
2021/10/09 00:10:08;;;;;;;141.77;132.10;;;;;;;;;;5015043;28;20473;-66
2021/10/09 00:12:35;;;;;;;142.10;131.90;;;;;;;;;;5015891;28;20442;-66
2021/10/09 00:15:02;;;;;;;142.13;132.57;;;;;;;;;;5014736;28;20480;-67
2021/10/09 00:17:30;;;;;;;144.70;134.60;;;;;;;;;;5014993;28;20449;-67
2021/10/09 00:19:57;;;;;;;148.27;138.37;;;;;;;;;;5033791;28;20472;-66
2021/10/09 00:22:24;;;;;;;139.83;130.07;;;;;;;;;;5034655;28;20480;-65
2021/10/09 00:24:51;;;;;;;144.80;135.13;;;;;;;;;;5033435;28;20456;-67
2021/10/09 00:27:20;;;;;;;141.47;131.83;;;;;;;;;;5034426;28;20455;-66
2021/10/09 00:29:47;;;;;;;146.20;136.30;;;;;;;;;;5033535;28;20468;-66
2021/10/09 00:32:14;;;;;;;148.10;138.00;;;;;;;;;;5033285;28;20452;-66
2021/10/09 00:34:41;;;;;;;148.07;137.90;;;;;;;;;;5043115;28;20455;-66
2021/10/09 00:37:08;;;;;;;142.00;132.20;;;;;;;;;;5024274;28;21113;-66
2021/10/09 00:39:35;;;;;;;143.93;134.10;;;;;;;;;;5014178;28;20484;-66
2021/10/09 00:42:04;;;;;;;151.97;141.77;;;;;;;;;;5015285;28;20485;-66
2021/10/09 00:44:33;;;;;;;145.40;135.50;;;;;;;;;;5014049;28;20460;-66
2021/10/09 00:47:03;;;;;;;154.13;143.60;;;;;;;;;;5026184;28;20463;-66
2021/10/09 00:49:30;;;;;;;161.50;151.07;;;;;;;;;;5034064;28;20484;-66
2021/10/09 00:51:58;;;;;;;147.27;137.50;;;;;;;;;;5023291;28;20473;-65
2021/10/09 00:54:25;;;;;;;151.40;140.97;;;;;;;;;;5028752;28;20479;-66
2021/10/09 00:56:53;;;;;;;149.70;139.20;;;;;;;;;;5033998;28;20449;-65
2021/10/09 00:59:21;;;;;;;154.07;143.77;;;;;;;;;;5032580;28;20991;-66
2021/10/09 01:01:50;;;;;;;154.97;144.30;;;;;;;;;;5033873;28;20456;-65
2021/10/09 01:04:19;;;;;;;149.33;139.30;;;;;;;;;;5032969;28;20457;-65
2021/10/09 01:06:46;;;;;;;154.93;144.23;;;;;;;;;;5034854;28;20452;-65
2021/10/09 01:09:13;;;;;;;154.00;143.90;;;;;;;;;;5032510;28;20476;-66
2021/10/09 01:11:40;;;;;;;152.07;142.07;;;;;;;;;;5033640;28;20445;-65
2021/10/09 01:14:08;;;;;;;154.43;143.83;;;;;;;;;;5034963;28;21117;-64
2021/10/09 01:16:35;;;;;;;154.03;143.53;;;;;;;;;;5053076;28;20454;-66
2021/10/09 01:19:03;;;;;;;153.10;142.70;;;;;;;;;;5040738;28;20472;-65
2021/10/09 01:21:40;;;;;;;154.73;144.47;;;;;;;;;;5033436;28;20457;-65
2021/10/09 01:24:07;;;;;;;150.20;140.03;;;;;;;;;;5042486;28;21891;-66
2021/10/09 01:26:34;;;;;;;145.73;135.80;;;;;;;;;;5028512;28;20944;-65
2021/10/09 01:29:01;;;;;;;144.33;134.50;;;;;;;;;;5032759;28;20473;-65
2021/10/09 01:31:28;;;;;;;140.97;131.47;;;;;;;;;;5033155;28;20464;-65
2021/10/09 01:33:55;;;;;;;147.17;137.27;;;;;;;;;;5032880;28;20437;-65
2021/10/09 01:36:22;;;;;;;143.60;133.90;;;;;;;;;;5032565;28;20947;-65
2021/10/09 01:38:52;;;;;;;145.53;135.90;;;;;;;;;;5033179;28;20476;-65
2021/10/09 01:41:19;;;;;;;143.80;133.90;;;;;;;;;;5020515;28;20975;-65
2021/10/09 01:43:46;;;;;;;149.83;139.93;;;;;;;;;;5032278;28;20491;-64
2021/10/09 01:46:14;;;;;;;142.67;132.73;;;;;;;;;;5015831;28;20476;-65
2021/10/09 01:48:42;;;;;;;140.30;130.90;;;;;;;;;;5013248;28;20466;-65
2021/10/09 01:51:09;;;;;;;139.23;129.50;;;;;;;;;;5013987;28;20450;-65
2021/10/09 01:53:37;;;;;;;141.70;132.20;;;;;;;;;;5022974;28;20445;-65
2021/10/09 01:56:06;;;;;;;136.93;127.43;;;;;;;;;;5032646;28;20457;-65
2021/10/09 01:58:33;;;;;;;137.40;128.10;;;;;;;;;;5032514;28;20862;-65
2021/10/09 02:01:01;;;;;;;137.30;127.50;;;;;;;;;;5032194;28;20461;-65
2021/10/09 02:03:28;;;;;;;146.53;136.93;;;;;;;;;;5032267;28;20480;-65
2021/10/09 02:05:55;;;;;;;135.87;126.83;;;;;;;;;;5032054;28;20463;-65
2021/10/09 02:08:22;;;;;;;130.03;120.63;;;;;;;;;;5032398;28;20555;-66
2021/10/09 02:10:52;;;;;;;136.03;126.43;;;;;;;;;;5031981;28;20491;-66
2021/10/09 02:13:24;;;;;;;136.23;126.47;;;;;;;;;;5039871;28;20472;-65
2021/10/09 02:15:55;;;;;;;136.70;127.10;;;;;;;;;;5031825;28;20457;-64
2021/10/09 02:18:36;;;;;;;137.27;127.97;;;;;;;;;;5032473;28;20469;-66
2021/10/09 02:26:33;;;;;;;133.33;124.27;;;;;;;;;;5024140;28;20397;-64
2021/10/09 02:29:01;;;;;;;133.53;124.13;;;;;;;;;;5019299;28;20967;-65
2021/10/09 02:31:28;;;;;;;133.00;123.70;;;;;;;;;;5030629;28;20453;-66
2021/10/09 02:33:55;;;;;;;150.93;140.93;;;;;;;;;;5032278;28;20441;-65
2021/10/09 02:36:23;;;;;;;133.60;124.43;;;;;;;;;;5031825;28;20541;-65
2021/10/09 02:38:50;;;;;;;137.87;127.97;;;;;;;;;;5030831;28;20484;-65
2021/10/09 02:41:17;;;;;;;133.50;124.03;;;;;;;;;;5079956;22;20499;-73
2021/10/09 02:43:44;;;;;;;135.50;126.00;;;;;;;;;;5050267;28;20865;-78
2021/10/09 02:46:13;;;;;;;133.23;123.60;;;;;;;;;;5048227;28;20451;-72
2021/10/09 02:48:40;;;;;;;138.53;129.20;;;;;;;;;;5048663;28;20962;-73
2021/10/09 02:51:07;;;;;;;135.33;126.10;;;;;;;;;;5051697;28;20986;-77
2021/10/09 02:53:34;;;;;;;136.77;127.30;;;;;;;;;;5052091;28;20443;-76
2021/10/09 02:56:02;;;;;;;136.17;126.50;;;;;;;;;;5051998;28;20539;-76
2021/10/09 02:58:29;;;;;;;133.47;124.47;;;;;;;;;;5052320;28;20454;-73
2021/10/09 03:00:56;;;;;;;140.83;131.20;;;;;;;;;;5053156;28;20471;-74
2021/10/09 03:03:25;;;;;;;135.67;126.17;;;;;;;;;;5053563;28;20483;-74
2021/10/09 03:05:52;;;;;;;130.73;121.53;;;;;;;;;;5053674;28;20546;-75
2021/10/09 03:08:19;;;;;;;131.47;122.03;;;;;;;;;;5053959;28;20474;-74
2021/10/09 03:10:46;;;;;;;134.53;124.87;;;;;;;;;;5053680;28;20999;-75
2021/10/09 03:13:13;;;;;;;128.03;118.97;;;;;;;;;;5053444;28;20450;-71
2021/10/09 03:15:40;;;;;;;132.07;123.20;;;;;;;;;;5053789;28;20458;-73
2021/10/09 03:18:08;;;;;;;127.33;118.53;;;;;;;;;;5054256;28;20454;-78
2021/10/09 03:20:37;;;;;;;131.70;122.90;;;;;;;;;;5053542;28;20530;-71
2021/10/09 03:23:04;;;;;;;124.20;115.10;;;;;;;;;;5062885;28;20475;-75
2021/10/09 03:25:31;;;;;;;125.40;116.90;;;;;;;;;;5053632;28;20460;-73
2021/10/09 03:27:58;;;;;;;128.20;119.27;;;;;;;;;;5054857;28;20443;-74
2021/10/09 03:30:25;;;;;;;126.33;118.20;;;;;;;;;;5068761;28;20448;-75
2021/10/09 03:32:52;;;;;;;121.73;113.20;;;;;;;;;;5054286;28;20450;-77
2021/10/09 03:35:19;;;;;;;122.80;114.07;;;;;;;;;;5054545;28;20467;-75
2021/10/09 03:37:48;;;;;;;133.07;124.07;;;;;;;;;;5055523;28;20444;-74
2021/10/09 03:40:18;;;;;;;129.43;120.57;;;;;;;;;;5055198;28;20452;-75
2021/10/09 03:42:47;;;;;;;123.23;114.47;;;;;;;;;;5055289;28;20538;-76
2021/10/09 03:45:19;;;;;;;126.27;117.30;;;;;;;;;;5055393;28;20452;-73
2021/10/09 03:48:01;;;;;;;130.37;121.50;;;;;;;;;;5036615;28;20511;-77
2021/10/09 03:53:15;;;;;;;123.50;114.50;;;;;;;;;;5055978;28;20502;-71
2021/10/09 03:55:42;;;;;;;124.97;116.30;;;;;;;;;;5053591;28;20513;-76
2021/10/09 03:58:09;;;;;;;127.43;118.37;;;;;;;;;;5057897;28;20513;-76
2021/10/09 04:00:37;;;;;;;130.13;121.37;;;;;;;;;;5064494;28;20446;-79
2021/10/09 04:03:04;;;;;;;125.97;117.23;;;;;;;;;;5078400;28;20483;-74
2021/10/09 04:05:31;;;;;;;122.83;113.83;;;;;;;;;;5060183;28;20447;-75
2021/10/09 04:07:58;;;;;;;118.50;110.30;;;;;;;;;;5065072;28;20443;-70
2021/10/09 04:10:26;;;;;;;127.80;119.00;;;;;;;;;;5065838;28;20470;-71
2021/10/09 04:12:53;;;;;;;115.53;107.57;;;;;;;;;;5065544;28;20439;-71
2021/10/09 04:15:21;;;;;;;115.07;107.10;;;;;;;;;;5065224;28;20451;-71
2021/10/09 04:17:48;;;;;;;116.10;107.70;;;;;;;;;;5065615;28;20854;-71
2021/10/09 04:20:15;;;;;;;114.17;105.87;;;;;;;;;;5062025;28;20454;-72
2021/10/09 04:22:42;;;;;;;112.00;104.30;;;;;;;;;;5063220;28;20475;-73
2021/10/09 04:25:09;;;;;;;113.57;105.27;;;;;;;;;;5067029;28;20447;-71
2021/10/09 04:27:38;;;;;;;114.63;106.30;;;;;;;;;;5060849;28;20791;-71
2021/10/09 04:30:06;;;;;;;122.03;113.13;;;;;;;;;;5059921;28;20428;-71
2021/10/09 04:32:33;;;;;;;113.53;105.33;;;;;;;;;;5058349;28;20459;-70
2021/10/09 04:35:00;;;;;;;118.00;109.50;;;;;;;;;;5064456;28;20685;-70
2021/10/09 04:37:27;;;;;;;114.73;106.53;;;;;;;;;;5059264;28;20454;-73
2021/10/09 04:39:54;;;;;;;118.20;109.73;;;;;;;;;;5059585;28;20474;-73
2021/10/09 04:42:21;;;;;;;113.37;105.47;;;;;;;;;;5042181;28;20511;-69
2021/10/09 04:44:50;;;;;;;116.93;108.73;;;;;;;;;;5047091;28;20491;-71
2021/10/09 04:47:17;;;;;;;117.83;109.60;;;;;;;;;;5062203;28;20460;-70
2021/10/09 04:49:44;;;;;;;119.70;111.33;;;;;;;;;;5061275;28;20818;-69
2021/10/09 04:52:11;;;;;;;123.03;114.43;;;;;;;;;;5080750;28;20999;-70
2021/10/09 04:54:38;;;;;;;115.87;107.57;;;;;;;;;;5067727;28;20443;-69
2021/10/09 04:57:05;;;;;;;121.27;112.70;;;;;;;;;;5042030;28;20445;-71
2021/10/09 04:59:32;;;;;;;128.57;119.80;;;;;;;;;;5053828;28;20458;-70
2021/10/09 05:02:01;;;;;;;120.20;111.20;;;;;;;;;;5081138;28;20467;-70
2021/10/09 05:04:28;;;;;;;118.13;109.23;;;;;;;;;;5069276;28;20998;-70
2021/10/09 05:06:55;;;;;;;135.93;126.77;;;;;;;;;;5058103;28;20448;-71
2021/10/09 05:09:22;;;;;;;114.77;106.57;;;;;;;;;;5058188;28;20452;-71
2021/10/09 05:11:49;;;;;;;119.40;110.83;;;;;;;;;;5059119;28;20971;-72
2021/10/09 05:14:16;;;;;;;119.47;111.27;;;;;;;;;;5058643;28;20446;-70
2021/10/09 05:16:43;;;;;;;119.93;111.17;;;;;;;;;;5058128;28;20450;-71
2021/10/09 05:19:12;;;;;;;116.53;108.43;;;;;;;;;;5058699;28;20456;-71
2021/10/09 05:21:39;;;;;;;116.37;107.57;;;;;;;;;;5051789;28;20488;-70
2021/10/09 05:24:06;;;;;;;120.43;111.47;;;;;;;;;;5064613;28;20489;-70
2021/10/09 05:26:36;;;;;;;118.67;110.27;;;;;;;;;;5065593;28;20462;-71
2021/10/09 05:29:03;;;;;;;116.50;107.90;;;;;;;;;;5057842;28;20436;-71
2021/10/09 05:31:32;;;;;;;118.13;109.63;;;;;;;;;;5060070;28;20468;-71
2021/10/09 05:34:00;;;;;;;126.70;117.90;;;;;;;;;;5060017;28;20451;-72
2021/10/09 05:36:28;;;;;;;118.27;109.57;;;;;;;;;;5040119;28;20447;-71
2021/10/09 05:38:55;;;;;;;118.20;109.63;;;;;;;;;;5037986;28;20453;-71
2021/10/09 05:41:23;;;;;;;123.33;114.70;;;;;;;;;;5056886;28;20476;-70
2021/10/09 05:43:50;;;;;;;126.40;117.80;;;;;;;;;;5056645;28;20479;-72
2021/10/09 05:46:18;;;;;;;118.60;109.97;;;;;;;;;;5056388;28;20836;-70
2021/10/09 05:48:45;;;;;;;119.87;111.27;;;;;;;;;;5057252;28;20440;-72
2021/10/09 05:51:16;;;;;;;77.70;72.07;;;;;;;;;;5055231;28;20471;-68
2021/10/09 05:53:56;;;;;;;81.63;75.57;;;;;;;;;;5052206;28;20577;-68
2021/10/09 05:56:33;;;;;;;78.50;72.07;;;;;;;;;;5033117;28;20467;-70
2021/10/09 05:59:20;;;;;;;90.13;83.30;;;;;;;;;;5038187;28;20501;-70
2021/10/09 06:32:40;;;;;;;571.00;539.47;;;;;;;;;;5013924;28;20453;-70
2021/10/09 06:46:39;;;;;;;287.27;274.37;;;;;;;;;;5052288;28;20501;-72
2021/10/09 06:49:15;;;;;;;255.60;244.20;;;;;;;;;;5055577;28;20501;-70
2021/10/09 07:00:09;;;;;;;120.50;113.70;;;;;;;;;;5048988;28;20510;-70
2021/10/09 07:02:38;;;;;;;109.57;103.17;;;;;;;;;;5051208;28;20479;-70
2021/10/09 07:05:06;;;;;;;116.50;110.00;;;;;;;;;;5051254;28;20486;-70
2021/10/09 07:07:35;;;;;;;98.60;92.90;;;;;;;;;;5052449;28;20458;-70
2021/10/09 07:10:03;;;;;;;89.60;83.93;;;;;;;;;;5053460;28;20451;-70
2021/10/09 07:12:30;;;;;;;87.07;81.67;;;;;;;;;;5051467;28;20990;-71
2021/10/09 07:14:57;;;;;;;81.50;76.47;;;;;;;;;;5048911;28;20474;-70
2021/10/09 07:17:25;;;;;;;74.80;69.90;;;;;;;;;;5051949;28;20454;-70
2021/10/09 07:19:52;;;;;;;77.27;72.57;;;;;;;;;;5051567;28;20456;-70
2021/10/09 07:22:20;;;;;;;70.33;66.03;;;;;;;;;;5051946;28;20563;-69
2021/10/09 07:24:48;;;;;;;65.63;61.23;;;;;;;;;;5051602;28;20475;-70
2021/10/09 07:27:15;;;;;;;64.73;60.73;;;;;;;;;;5052473;28;20456;-68
2021/10/09 07:29:42;;;;;;;72.00;66.63;;;;;;;;;;5052179;28;20444;-72
2021/10/09 07:32:09;;;;;;;72.60;67.70;;;;;;;;;;5051988;28;20986;-70
2021/10/09 07:34:38;;;;;;;75.67;69.87;;;;;;;;;;5048507;28;20539;-72
2021/10/09 07:37:05;;;;;;;92.03;86.13;;;;;;;;;;5052327;28;20454;-73
2021/10/09 07:39:32;;;;;;;92.53;87.03;;;;;;;;;;5052755;28;21129;-72
2021/10/09 07:42:00;;;;;;;96.77;90.77;;;;;;;;;;5037429;28;21064;-72
2021/10/09 07:44:27;;;;;;;94.67;89.17;;;;;;;;;;5054901;28;20483;-72
2021/10/09 07:46:55;;;;;;;94.77;89.10;;;;;;;;;;5058677;28;20463;-72
2021/10/09 07:49:22;;;;;;;91.00;85.60;;;;;;;;;;5054518;28;22103;-72
2021/10/09 07:51:51;;;;;;;89.17;83.63;;;;;;;;;;5067634;28;21044;-69
2021/10/09 07:54:18;;;;;;;84.27;78.97;;;;;;;;;;5054997;28;20465;-72
2021/10/09 07:56:45;;;;;;;80.70;75.53;;;;;;;;;;5056653;28;20447;-72
2021/10/09 07:59:12;;;;;;;115.40;108.50;;;;;;;;;;5055932;28;20891;-70
2021/10/09 08:01:39;;;;;;;200.23;190.33;;;;;;;;;;5062715;28;20483;-70
2021/10/09 08:04:09;;;;;;;167.20;158.90;;;;;;;;;;5051975;28;20483;-70
2021/10/09 08:06:36;;;;;;;142.60;135.40;;;;;;;;;;5053481;28;20471;-70
2021/10/09 08:09:05;;;;;;;121.30;114.57;;;;;;;;;;5055498;28;20458;-67
2021/10/09 08:11:32;;;;;;;111.40;105.00;;;;;;;;;;5067618;28;20467;-69
2021/10/09 08:13:59;;;;;;;101.13;95.50;;;;;;;;;;5055135;28;20966;-70
2021/10/09 08:16:26;;;;;;;84.07;78.93;;;;;;;;;;5062262;28;20455;-69
2021/10/09 08:18:53;;;;;;;76.03;71.40;;;;;;;;;;5049381;28;20460;-65
2021/10/09 08:21:25;;;;;;;73.87;69.03;;;;;;;;;;5046997;28;20486;-69
2021/10/09 08:23:57;;;;;;;59.00;55.33;;;;;;;;;;5050590;28;20879;-69
2021/10/09 08:40:23;;;;;;;52.70;49.10;;;;;;;;;;5043573;28;20440;-70
2021/10/09 08:45:17;;;;;;;49.40;46.30;;;;;;;;;;5080166;22;20501;-63
2021/10/09 08:47:45;;;;;;;50.43;47.23;;;;;;;;;;5080205;28;20822;-63
2021/10/09 08:50:13;;;;;;;50.07;46.50;;;;;;;;;;5068843;28;20538;-63
2021/10/09 08:52:56;;;;;;;50.27;46.90;;;;;;;;;;5064819;28;20455;-62
2021/10/09 08:55:24;;;;;;;46.97;43.90;;;;;;;;;;5044413;28;20452;-63
2021/10/09 08:57:52;;;;;;;45.77;42.67;;;;;;;;;;5054125;28;20935;-63
2021/10/09 09:00:23;;;;;;;47.83;44.83;;;;;;;;;;5048694;28;20464;-63
2021/10/09 09:03:01;;;;;;;45.20;42.20;;;;;;;;;;5034135;28;20452;-62
2021/10/09 09:05:35;;;;;;;45.97;42.97;;;;;;;;;;5073173;28;20475;-62
2021/10/09 09:27:45;;;;;;;40.47;38.07;;;;;;;;;;5052517;28;20585;-62
2021/10/09 09:30:39;;;;;;;41.33;38.53;;;;;;;;;;5060521;28;20977;-63
2021/10/09 09:33:39;;;;;;;39.20;36.80;;;;;;;;;;5042481;28;20444;-63
2021/10/09 09:39:04;;;;;;;38.37;36.07;;;;;;;;;;5071528;28;20454;-63
2021/10/09 09:41:42;;;;;;;37.30;34.80;;;;;;;;;;5046518;28;20515;-63
2021/10/09 09:44:12;;;;;;;32.53;30.30;;;;;;;;;;5032717;28;20480;-62
2021/10/09 09:46:39;;;;;;;36.70;34.30;;;;;;;;;;5050541;28;20954;-62
2021/10/09 09:49:09;;;;;;;35.30;33.07;;;;;;;;;;5053177;28;20806;-62
2021/10/09 09:51:37;;;;;;;33.30;31.20;;;;;;;;;;5061145;28;20562;-63
2021/10/09 09:54:04;;;;;;;34.07;31.97;;;;;;;;;;5052987;28;20467;-62
2021/10/09 09:56:31;;;;;;;33.77;31.87;;;;;;;;;;5054643;28;20467;-62
2021/10/09 09:59:00;;;;;;;32.03;30.13;;;;;;;;;;5051276;28;21733;-62
2021/10/09 10:01:31;;;;;;;32.77;30.77;;;;;;;;;;5065719;28;20980;-62
2021/10/09 10:03:59;;;;;;;32.30;30.37;;;;;;;;;;5070809;28;20474;-62
2021/10/09 10:06:29;;;;;;;29.03;27.07;;;;;;;;;;5044984;28;21135;-62
2021/10/09 10:08:57;;;;;;;30.80;28.90;;;;;;;;;;5053212;28;20523;-62
2021/10/09 10:11:24;;;;;;;28.70;26.70;;;;;;;;;;5053147;28;20483;-63
2021/10/09 10:13:52;;;;;;;27.70;25.90;;;;;;;;;;5051988;28;20838;-62
2021/10/09 10:16:19;;;;;;;28.07;26.37;;;;;;;;;;5054797;28;20459;-62
2021/10/09 10:18:54;;;;;;;27.97;26.10;;;;;;;;;;5065238;28;20470;-62
2021/10/09 10:21:46;;;;;;;26.63;25.03;;;;;;;;;;5033105;28;20531;-62
2021/10/09 10:24:13;;;;;;;28.20;26.40;;;;;;;;;;5061117;28;20488;-61
2021/10/09 10:26:40;;;;;;;26.50;24.60;;;;;;;;;;5056670;28;20463;-62
2021/10/09 10:29:26;;;;;;;26.80;25.00;;;;;;;;;;5059774;28;20480;-62
2021/10/09 10:32:10;;;;;;;27.47;25.80;;;;;;;;;;5070374;28;20965;-63
2021/10/09 10:34:37;;;;;;;26.57;24.77;;;;;;;;;;5068550;28;20481;-62
2021/10/09 10:37:06;;;;;;;26.17;24.53;;;;;;;;;;5054274;28;20869;-63
2021/10/09 10:39:40;;;;;;;24.97;23.30;;;;;;;;;;5069067;28;20469;-62
2021/10/09 10:42:26;;;;;;;25.37;23.53;;;;;;;;;;5072086;28;20529;-62
2021/10/09 10:45:17;;;;;;;24.83;22.93;;;;;;;;;;5068913;28;20494;-62
2021/10/09 10:47:52;;;;;;;26.03;24.30;;;;;;;;;;5057539;28;21028;-62
2021/10/09 10:54:19;;;;;;;24.60;23.20;;;;;;;;;;4980066;28;20525;-63
2021/10/09 10:57:05;;;;;;;25.80;24.10;;;;;;;;;;4990151;28;20482;-62
2021/10/09 10:59:34;;;;;;;25.17;23.50;;;;;;;;;;5056827;28;20470;-62
2021/10/09 11:02:11;;;;;;;24.63;23.23;;;;;;;;;;5051102;28;20497;-63
2021/10/09 11:04:40;;;;;;;24.70;23.07;;;;;;;;;;5066167;28;20494;-62
2021/10/09 11:07:08;;;;;;;25.13;23.67;;;;;;;;;;5054841;28;20830;-62
2021/10/09 11:09:36;;;;;;;24.83;23.20;;;;;;;;;;5059465;28;20462;-62
2021/10/09 11:12:04;;;;;;;24.90;23.30;;;;;;;;;;5071773;28;20478;-63
2021/10/09 11:14:32;;;;;;;25.37;23.80;;;;;;;;;;5055860;28;20475;-62
2021/10/09 11:17:04;;;;;;;24.87;23.17;;;;;;;;;;5073766;28;20443;-62
2021/10/09 11:19:42;;;;;;;25.50;23.80;;;;;;;;;;5054310;28;20475;-64
2021/10/09 11:22:09;;;;;;;26.10;24.20;;;;;;;;;;5055873;28;20508;-63
2021/10/09 11:24:43;;;;;;;25.67;23.80;;;;;;;;;;5058513;28;20863;-62
2021/10/09 11:27:10;;;;;;;26.10;24.30;;;;;;;;;;5054873;28;20471;-62
2021/10/09 11:29:37;;;;;;;24.80;23.40;;;;;;;;;;5054994;28;20460;-62
2021/10/09 11:32:08;;;;;;;25.33;23.83;;;;;;;;;;5064767;28;20847;-62
2021/10/09 11:34:48;;;;;;;27.53;25.80;;;;;;;;;;5060091;28;20491;-62
2021/10/09 11:37:15;;;;;;;31.70;29.97;;;;;;;;;;5072008;28;20455;-62
2021/10/09 11:39:46;;;;;;;24.23;22.73;;;;;;;;;;5074074;28;20833;-63
2021/10/09 11:42:14;;;;;;;25.63;23.93;;;;;;;;;;5072554;28;20464;-62
2021/10/09 11:44:47;;;;;;;25.77;24.03;;;;;;;;;;5069115;28;20497;-62
2021/10/09 11:53:28;;;;;;;25.00;23.43;;;;;;;;;;5055665;28;20447;-62
2021/10/09 11:55:59;;;;;;;26.20;24.30;;;;;;;;;;5063041;28;20450;-62
2021/10/09 11:58:26;;;;;;;26.00;24.03;;;;;;;;;;5045007;28;20908;-62
2021/10/09 12:00:53;;;;;;;26.73;25.10;;;;;;;;;;5076744;28;20443;-62
2021/10/09 12:03:37;;;;;;;25.97;24.40;;;;;;;;;;5068418;28;20506;-62
2021/10/09 12:06:10;;;;;;;24.90;23.40;;;;;;;;;;5055247;28;21002;-62
2021/10/09 12:08:48;;;;;;;26.57;24.67;;;;;;;;;;5054045;28;20459;-62
2021/10/09 12:11:16;;;;;;;25.20;23.60;;;;;;;;;;5059292;28;20444;-63
2021/10/09 12:13:51;;;;;;;26.23;24.53;;;;;;;;;;5054357;28;20486;-62
2021/10/09 12:16:22;;;;;;;26.40;24.73;;;;;;;;;;5055205;28;20462;-62
2021/10/09 12:18:54;;;;;;;26.80;25.30;;;;;;;;;;5071420;28;20459;-62
2021/10/09 12:21:22;;;;;;;25.73;24.10;;;;;;;;;;5074543;28;20438;-64
2021/10/09 12:23:49;;;;;;;25.93;24.33;;;;;;;;;;5067625;28;20878;-64
2021/10/09 12:26:16;;;;;;;25.87;23.87;;;;;;;;;;5061175;28;20490;-63
2021/10/09 12:29:02;;;;;;;25.77;24.27;;;;;;;;;;5052644;28;20770;-64
2021/10/09 12:31:29;;;;;;;26.60;24.70;;;;;;;;;;5050733;28;20453;-64
2021/10/09 12:33:58;;;;;;;26.77;25.03;;;;;;;;;;5059952;28;21015;-64
2021/10/09 12:36:32;;;;;;;25.83;24.00;;;;;;;;;;5073828;28;20446;-64
2021/10/09 12:39:19;;;;;;;26.97;25.33;;;;;;;;;;5055332;28;20812;-64
2021/10/09 12:41:46;;;;;;;25.40;23.80;;;;;;;;;;5053951;28;20446;-63
2021/10/09 12:44:13;;;;;;;25.70;24.00;;;;;;;;;;5069426;28;20490;-64
2021/10/09 12:46:40;;;;;;;27.27;25.47;;;;;;;;;;5074106;28;20494;-64
2021/10/09 12:49:09;;;;;;;25.37;23.83;;;;;;;;;;5068564;28;20463;-64
2021/10/09 12:51:36;;;;;;;26.33;24.73;;;;;;;;;;5071091;28;20458;-64
2021/10/09 12:54:06;;;;;;;24.77;23.33;;;;;;;;;;5057409;28;20489;-64
2021/10/09 12:56:33;;;;;;;25.87;24.27;;;;;;;;;;5071193;28;20523;-64
2021/10/09 12:59:00;;;;;;;26.03;24.43;;;;;;;;;;5050934;28;20475;-64
2021/10/09 13:01:27;;;;;;;25.90;24.40;;;;;;;;;;5040701;28;20450;-64
2021/10/09 13:03:54;;;;;;;25.60;23.93;;;;;;;;;;5047951;28;20479;-64
2021/10/09 13:06:23;;;;;;;25.37;23.57;;;;;;;;;;5050775;28;20472;-64
2021/10/09 13:08:50;;;;;;;24.77;23.37;;;;;;;;;;5053272;28;20448;-65
2021/10/09 13:11:22;;;;;;;25.40;23.80;;;;;;;;;;5059528;28;20841;-63
2021/10/09 13:13:49;;;;;;;25.43;23.80;;;;;;;;;;5053432;28;21009;-63
2021/10/09 13:16:16;;;;;;;25.77;24.03;;;;;;;;;;5053432;28;20454;-64
2021/10/09 13:18:43;;;;;;;25.70;23.90;;;;;;;;;;5053502;28;20497;-62
2021/10/09 13:21:10;;;;;;;24.67;23.17;;;;;;;;;;5054786;28;20447;-62
2021/10/09 13:23:39;;;;;;;25.37;23.70;;;;;;;;;;5042847;28;20486;-62
2021/10/09 13:26:06;;;;;;;25.17;23.67;;;;;;;;;;5052303;28;20479;-63
2021/10/09 13:28:36;;;;;;;25.80;23.80;;;;;;;;;;5045435;28;20453;-62
2021/10/09 13:31:03;;;;;;;25.60;23.83;;;;;;;;;;5046806;28;20459;-62
2021/10/09 13:33:30;;;;;;;25.30;23.80;;;;;;;;;;5053339;28;20824;-62
2021/10/09 13:35:58;;;;;;;24.37;22.77;;;;;;;;;;5050173;28;20452;-62
2021/10/09 13:38:29;;;;;;;26.23;24.53;;;;;;;;;;5043103;28;20951;-62
2021/10/09 13:40:58;;;;;;;25.83;24.03;;;;;;;;;;5052219;28;20494;-63
2021/10/09 13:43:25;;;;;;;26.37;24.77;;;;;;;;;;5052967;28;20484;-62
2021/10/09 13:45:52;;;;;;;26.57;24.87;;;;;;;;;;5051939;28;20483;-63
2021/10/09 13:48:19;;;;;;;26.03;24.53;;;;;;;;;;5042790;28;20449;-62
2021/10/09 13:50:48;;;;;;;27.00;25.20;;;;;;;;;;5038631;28;20455;-64
2021/10/09 13:53:16;;;;;;;28.23;26.13;;;;;;;;;;5052663;28;20472;-63
2021/10/09 13:55:43;;;;;;;28.00;26.23;;;;;;;;;;5049856;28;20440;-63
2021/10/09 13:58:12;;;;;;;27.70;25.77;;;;;;;;;;5033179;28;20460;-62
2021/10/09 14:00:39;;;;;;;26.27;24.47;;;;;;;;;;5051635;28;20753;-62
2021/10/09 14:03:06;;;;;;;25.90;24.20;;;;;;;;;;5052516;28;20459;-62
2021/10/09 14:05:34;;;;;;;25.73;24.13;;;;;;;;;;5051509;28;20444;-62
2021/10/09 14:08:01;;;;;;;25.83;24.17;;;;;;;;;;5046847;28;20460;-64
2021/10/09 14:10:28;;;;;;;26.60;24.93;;;;;;;;;;5032817;28;20447;-64
2021/10/09 14:12:55;;;;;;;25.47;23.97;;;;;;;;;;5052383;28;20801;-64
2021/10/09 14:15:23;;;;;;;25.90;24.43;;;;;;;;;;5052218;28;20440;-64
2021/10/09 14:17:51;;;;;;;26.30;24.63;;;;;;;;;;5041266;28;20974;-63
2021/10/09 14:20:18;;;;;;;26.60;24.70;;;;;;;;;;5032382;28;20846;-64
2021/10/09 14:22:45;;;;;;;26.50;24.90;;;;;;;;;;5050279;28;20448;-63
2021/10/09 14:25:15;;;;;;;25.90;24.33;;;;;;;;;;5051338;28;20467;-64
2021/10/09 14:27:42;;;;;;;27.57;25.67;;;;;;;;;;5044703;28;20488;-65
2021/10/09 14:30:10;;;;;;;32.73;29.23;;;;;;;;;;5051584;28;20467;-65
2021/10/09 14:32:39;;;;;;;31.77;28.43;;;;;;;;;;5051326;28;20832;-65
2021/10/09 14:35:06;;;;;;;30.70;26.30;;;;;;;;;;5051131;28;20846;-65
2021/10/09 14:37:34;;;;;;;31.27;28.40;;;;;;;;;;5047685;28;20448;-65
2021/10/09 14:40:01;;;;;;;31.40;28.77;;;;;;;;;;5051846;28;20448;-63
2021/10/09 14:42:28;;;;;;;32.47;29.87;;;;;;;;;;5051427;28;20539;-65
2021/10/09 14:44:55;;;;;;;34.40;31.27;;;;;;;;;;5080014;22;20493;-62
2021/10/09 14:50:17;;;;;;;29.10;26.83;;;;;;;;;;5070593;28;20832;-62
2021/10/09 14:52:52;;;;;;;32.70;30.07;;;;;;;;;;5069875;28;20814;-62
2021/10/09 15:20:17;;;;;;;26.67;25.10;;;;;;;;;;5025535;28;20818;-65
2021/10/09 15:22:45;;;;;;;26.30;24.40;;;;;;;;;;5051236;28;20451;-67
2021/10/09 15:25:14;;;;;;;26.03;24.33;;;;;;;;;;5081724;28;21032;-66
2021/10/09 15:27:41;;;;;;;26.23;24.73;;;;;;;;;;5071178;28;20621;-65
2021/10/09 15:30:08;;;;;;;27.30;25.60;;;;;;;;;;5071539;28;20454;-65
2021/10/09 15:32:35;;;;;;;26.37;24.73;;;;;;;;;;5070284;28;20493;-66
2021/10/09 15:35:03;;;;;;;27.80;25.90;;;;;;;;;;5069118;28;20467;-67
2021/10/09 15:37:30;;;;;;;26.87;25.47;;;;;;;;;;5072693;28;20454;-66
2021/10/09 15:40:00;;;;;;;26.30;24.80;;;;;;;;;;5091464;28;20449;-66
2021/10/09 15:42:27;;;;;;;25.60;23.80;;;;;;;;;;5083374;28;20537;-66
2021/10/09 15:44:54;;;;;;;25.07;23.57;;;;;;;;;;5058671;28;20857;-66
2021/10/09 15:47:21;;;;;;;25.67;24.17;;;;;;;;;;5071068;28;20486;-66
2021/10/09 15:49:48;;;;;;;26.10;24.70;;;;;;;;;;5070651;28;20451;-65
2021/10/09 15:52:15;;;;;;;24.93;23.53;;;;;;;;;;5069377;28;20533;-65
2021/10/09 15:54:42;;;;;;;24.87;23.27;;;;;;;;;;5089171;28;20470;-66
2021/10/09 15:57:11;;;;;;;25.47;23.80;;;;;;;;;;5091309;28;20802;-67
2021/10/09 15:59:38;;;;;;;26.27;24.50;;;;;;;;;;5073643;28;20454;-65
2021/10/09 16:02:05;;;;;;;25.90;24.30;;;;;;;;;;5070074;28;20450;-65
2021/10/09 16:04:32;;;;;;;24.77;23.30;;;;;;;;;;5060774;28;21018;-64
2021/10/09 16:06:59;;;;;;;26.60;24.80;;;;;;;;;;5063860;28;20481;-64
2021/10/09 16:09:26;;;;;;;25.57;24.03;;;;;;;;;;5058019;28;20447;-67
2021/10/09 16:11:53;;;;;;;25.50;23.83;;;;;;;;;;5063454;28;20449;-67
2021/10/09 16:14:22;;;;;;;25.43;23.93;;;;;;;;;;5074139;28;20462;-67
2021/10/09 16:16:49;;;;;;;25.20;23.60;;;;;;;;;;5074332;28;20439;-66
2021/10/09 16:19:16;;;;;;;25.20;23.67;;;;;;;;;;5074428;28;20453;-64
2021/10/09 16:21:44;;;;;;;24.73;23.30;;;;;;;;;;5073839;28;20953;-64
2021/10/09 16:24:11;;;;;;;25.50;24.00;;;;;;;;;;5073453;28;20981;-64
2021/10/09 16:26:41;;;;;;;25.57;24.07;;;;;;;;;;5089241;28;20473;-64
2021/10/09 16:29:08;;;;;;;25.57;23.87;;;;;;;;;;5094634;28;20488;-64
2021/10/09 16:31:37;;;;;;;25.70;24.10;;;;;;;;;;5085618;28;20962;-64